createdAt,value
2023-04-03T00:02:19.794Z,67240.25
2023-04-03T00:04:47.305Z,67194.88
2023-04-03T00:07:15.968Z,67243.41
2023-04-03T00:09:43.036Z,67238.94
2023-04-03T00:12:22.687Z,67233.50
2023-04-03T00:14:49.884Z,67229.38
2023-04-03T00:17:19.617Z,67220.00
2023-04-03T00:19:47.290Z,67224.72
2023-04-03T00:22:16.999Z,67230.13
2023-04-03T00:24:44.065Z,67224.31
2023-04-03T00:27:12.123Z,67216.63
2023-04-03T00:29:40.277Z,67219.81
2023-04-03T00:32:15.000Z,67208.22
2023-04-03T00:34:42.906Z,67210.25
2023-04-03T00:37:13.849Z,67211.38
2023-04-03T00:39:42.477Z,67201.47
2023-04-03T00:42:16.260Z,67205.97
2023-04-03T00:44:43.386Z,67197.75
2023-04-03T00:47:14.595Z,67217.34
2023-04-03T00:49:46.079Z,67206.31
2023-04-03T00:52:18.777Z,67194.16
2023-04-03T00:54:57.961Z,67190.56
2023-04-03T00:57:38.353Z,67182.94
2023-04-03T01:00:13.258Z,67175.63
2023-04-03T01:02:41.963Z,67172.59
2023-04-03T01:05:17.768Z,67170.00
2023-04-03T01:07:47.296Z,67164.75
2023-04-03T01:10:17.322Z,67174.84
2023-04-03T01:12:47.709Z,67162.13
2023-04-03T01:15:21.268Z,67165.88
2023-04-03T01:17:56.487Z,67165.66
2023-04-03T01:20:32.974Z,67159.13
2023-04-03T01:23:20.841Z,67151.47
2023-04-03T01:25:53.298Z,67159.47
2023-04-03T01:28:33.999Z,67150.13
2023-04-03T01:31:24.245Z,67148.44
2023-04-03T01:33:58.723Z,67133.13
2023-04-03T01:36:33.868Z,67139.25
2023-04-03T01:39:05.201Z,67120.00
2023-04-03T01:41:33.576Z,67125.63
2023-04-03T01:44:21.445Z,67127.44
2023-04-03T01:46:55.116Z,67116.63
2023-04-03T01:49:30.351Z,67123.75
2023-04-03T01:51:58.202Z,67107.44
2023-04-03T01:54:26.337Z,67108.56
2023-04-03T01:57:06.552Z,67064.06
2023-04-03T01:59:38.137Z,67104.84
2023-04-03T02:02:09.423Z,67096.75
2023-04-03T02:04:36.929Z,67084.63
2023-04-03T02:07:05.021Z,67092.84
2023-04-03T02:09:32.076Z,67089.13
2023-04-03T02:12:01.043Z,67076.22
2023-04-03T02:14:35.400Z,67070.94
2023-04-03T02:17:14.035Z,67065.34
2023-04-03T02:19:47.429Z,67073.75
2023-04-03T02:22:16.828Z,67065.56
2023-04-03T02:24:44.809Z,67055.22
2023-04-03T02:27:15.030Z,67057.47
2023-04-03T02:29:45.192Z,67041.41
2023-04-03T02:32:12.440Z,67046.47
2023-04-03T02:34:52.188Z,67040.06
2023-04-03T02:37:19.462Z,67034.09
2023-04-03T02:39:51.403Z,67040.06
2023-04-03T02:42:21.704Z,66990.00
2023-04-03T02:44:49.048Z,67027.16
2023-04-03T02:47:19.493Z,67013.69
2023-04-03T02:49:54.425Z,67002.13
2023-04-03T02:52:24.796Z,67009.06
2023-04-03T02:55:00.997Z,67002.47
2023-04-03T02:57:35.710Z,66990.91
2023-04-03T03:00:04.004Z,66988.31
2023-04-03T03:02:35.379Z,66991.47
2023-04-03T03:05:06.213Z,66989.00
2023-04-03T03:07:36.721Z,66980.25
2023-04-03T03:10:06.850Z,66986.56
2023-04-03T03:12:33.943Z,66966.59
2023-04-03T03:15:01.280Z,66951.09
2023-04-03T03:17:28.418Z,66904.81
2023-04-03T03:19:56.911Z,66949.97
2023-04-03T03:22:24.069Z,66949.41
2023-04-03T03:24:51.404Z,66942.47
2023-04-03T03:27:22.592Z,66943.00
2023-04-03T03:29:50.386Z,66943.38
2023-04-03T03:32:17.914Z,66932.56
2023-04-03T03:34:52.039Z,66942.47
2023-04-03T03:37:21.356Z,66928.66
2023-04-03T03:39:50.115Z,66873.75
2023-04-03T03:42:20.373Z,66926.75
2023-04-03T03:44:54.195Z,66926.19
2023-04-03T03:47:21.800Z,66926.75
2023-04-03T03:50:04.024Z,66919.47
2023-04-03T03:52:37.222Z,66873.41
2023-04-03T03:55:09.112Z,66920.38
2023-04-03T03:57:37.926Z,66909.59
2023-04-03T04:00:08.494Z,66903.97
2023-04-03T04:02:46.347Z,66898.38
2023-04-03T04:05:27.488Z,66892.56
2023-04-03T04:07:59.237Z,66896.69
2023-04-03T04:10:27.377Z,66894.78
2023-04-03T04:12:58.511Z,66887.16
2023-04-03T04:15:30.535Z,66882.69
2023-04-03T04:18:00.766Z,66839.81
2023-04-03T04:20:28.868Z,66833.06
2023-04-03T04:22:59.475Z,66824.88
2023-04-03T04:25:27.660Z,66825.22
2023-04-03T04:27:55.430Z,66875.19
2023-04-03T04:30:22.645Z,66863.06
2023-04-03T04:32:50.912Z,66869.22
2023-04-03T04:35:24.854Z,66870.69
2023-04-03T04:37:59.425Z,66874.06
2023-04-03T04:40:27.887Z,66870.13
2023-04-03T04:42:55.016Z,66868.31
2023-04-03T04:45:23.072Z,66824.09
2023-04-03T04:47:53.647Z,66865.31
2023-04-03T04:50:21.984Z,66869.03
2023-04-03T04:52:49.574Z,66869.78
2023-04-03T04:55:16.790Z,66866.22
2023-04-03T04:57:45.461Z,66829.69
2023-04-03T05:00:14.148Z,66866.75
2023-04-03T05:02:44.757Z,66869.56
2023-04-03T05:05:12.882Z,66821.88
2023-04-03T05:07:46.129Z,66872.94
2023-04-03T05:10:14.143Z,66869.03
2023-04-03T05:12:41.743Z,66823.56
2023-04-03T05:15:14.765Z,66871.47
2023-04-03T05:17:48.562Z,66865.66
2023-04-03T05:20:16.509Z,66865.19
2023-04-03T05:22:49.840Z,66883.03
2023-04-03T05:25:21.133Z,66888.06
2023-04-03T05:27:48.522Z,66889.19
2023-04-03T05:30:26.570Z,66892.56
2023-04-03T05:32:56.851Z,66900.59
2023-04-03T05:35:36.740Z,66869.47
2023-04-03T05:38:06.977Z,66863.88
2023-04-03T05:40:39.434Z,66920.25
2023-04-03T05:43:07.744Z,66938.19
2023-04-03T05:45:42.345Z,66948.63
2023-04-03T05:48:10.929Z,66962.09
2023-04-03T05:50:42.395Z,66973.84
2023-04-03T05:53:18.906Z,66974.09
2023-04-03T05:55:47.641Z,67025.13
2023-04-03T05:58:14.929Z,67044.00
2023-04-03T06:00:50.291Z,67054.09
2023-04-03T06:03:17.928Z,67045.69
2023-04-03T06:05:45.583Z,67041.75
2023-04-03T06:08:16.270Z,67027.72
2023-04-03T06:10:46.668Z,67029.06
2023-04-03T06:13:13.836Z,66984.41
2023-04-03T06:15:41.744Z,66992.25
2023-04-03T06:18:12.587Z,67041.75
2023-04-03T06:20:39.954Z,67054.09
2023-04-03T06:23:08.545Z,67074.88
2023-04-03T06:25:36.024Z,67095.44
2023-04-03T06:28:10.550Z,67049.47
2023-04-03T06:30:38.126Z,67084.06
2023-04-03T06:33:05.798Z,67105.63
2023-04-03T06:35:35.962Z,67065.56
2023-04-03T06:38:05.551Z,67077.91
2023-04-03T06:40:32.640Z,67102.75
2023-04-03T06:42:59.728Z,67116.78
2023-04-03T06:45:28.549Z,67122.25
2023-04-03T06:47:55.656Z,67134.63
2023-04-03T06:50:24.864Z,67152.22
2023-04-03T06:52:55.031Z,67169.44
2023-04-03T06:55:22.661Z,67166.44
2023-04-03T06:57:50.109Z,67157.44
2023-04-03T07:00:17.779Z,67151.25
2023-04-03T07:02:45.023Z,67148.66
2023-04-03T07:05:12.919Z,67146.97
2023-04-03T07:07:41.539Z,67089.88
2023-04-03T07:10:12.272Z,67136.28
2023-04-03T07:12:39.401Z,67158.22
2023-04-03T07:15:07.976Z,67151.25
2023-04-03T07:17:35.115Z,67145.28
2023-04-03T07:20:02.960Z,67093.25
2023-04-03T07:22:32.256Z,67132.94
2023-04-03T07:25:00.191Z,67163.06
2023-04-03T07:27:27.838Z,67133.28
2023-04-03T07:29:56.969Z,67152.38
2023-04-03T07:32:24.140Z,67132.16
2023-04-03T07:34:51.288Z,67138.34
2023-04-03T07:37:19.059Z,67134.81
2023-04-03T07:39:46.140Z,67088.75
2023-04-03T07:42:13.517Z,67139.88
2023-04-03T07:44:44.889Z,67147.53
2023-04-03T07:47:11.949Z,67141.56
2023-04-03T07:49:40.686Z,67143.94
2023-04-03T07:52:12.345Z,67127.50
2023-04-03T07:54:39.583Z,67150.91
2023-04-03T07:57:06.980Z,67157.06
2023-04-03T07:59:34.202Z,67158.56
2023-04-03T08:02:01.287Z,67171.13
2023-04-03T08:04:28.771Z,67175.06
2023-04-03T08:06:55.891Z,67179.56
2023-04-03T08:09:23.190Z,67201.81
2023-04-03T08:11:54.060Z,67219.81
2023-04-03T08:14:21.879Z,67244.56
2023-04-03T08:16:49.086Z,67230.69
2023-04-03T08:19:25.536Z,67232.41
2023-04-03T08:21:53.787Z,67241.16
2023-04-03T08:24:20.840Z,67287.28
2023-04-03T08:26:50.737Z,67275.66
2023-04-03T08:29:17.914Z,67309.22
2023-04-03T08:31:45.767Z,67297.25
2023-04-03T08:34:17.100Z,67304.34
2023-04-03T08:36:44.329Z,67328.13
2023-04-03T08:39:11.717Z,67324.94
2023-04-03T08:41:48.949Z,67316.72
2023-04-03T08:44:43.245Z,67279.25
2023-04-03T08:47:22.941Z,67290.84
2023-04-03T08:49:54.577Z,67290.84
2023-04-03T08:52:36.800Z,67311.66
2023-04-03T08:55:40.203Z,67400.56
2023-04-03T08:58:19.309Z,67384.44
2023-04-03T09:01:05.073Z,67431.88
2023-04-03T09:03:35.127Z,67561.28
2023-04-03T09:06:11.389Z,67567.28
2023-04-03T09:08:44.432Z,67501.94
2023-04-03T09:11:22.990Z,67462.50
2023-04-03T09:14:19.429Z,67444.84
2023-04-03T09:16:54.405Z,67491.03
2023-04-03T09:19:36.708Z,67576.09
2023-04-03T09:22:03.715Z,67616.13
2023-04-03T09:24:32.640Z,67633.63
2023-04-03T09:27:07.463Z,67632.31
2023-04-03T09:29:40.402Z,67522.19
2023-04-03T09:32:25.961Z,67499.69
2023-04-03T09:34:55.656Z,67496.84
2023-04-03T09:37:44.860Z,67473.00
2023-04-03T09:40:27.537Z,67482.38
2023-04-03T09:43:01.564Z,67470.78
2023-04-03T09:45:38.751Z,67464.00
2023-04-03T09:48:16.231Z,67524.09
2023-04-03T09:51:04.792Z,67606.75
2023-04-03T09:53:44.404Z,67638.69
2023-04-03T09:56:21.602Z,67621.03
2023-04-03T09:59:00.960Z,67580.25
2023-04-03T10:01:45.128Z,67647.34
2023-04-03T10:04:18.586Z,67678.94
2023-04-03T10:06:49.611Z,67665.75
2023-04-03T10:09:28.594Z,67655.25
2023-04-03T10:12:13.284Z,67667.66
2023-04-03T10:14:58.496Z,67655.44
2023-04-03T10:17:57.418Z,67579.31
2023-04-03T10:20:31.521Z,67575.19
2023-04-03T10:23:15.631Z,67582.28
2023-04-03T10:25:53.513Z,67542.13
2023-04-03T10:28:20.565Z,67554.69
2023-04-03T10:31:08.525Z,67658.44
2023-04-03T10:33:54.056Z,67770.56
2023-04-03T10:36:47.029Z,67859.03
2023-04-03T10:39:27.970Z,67936.44
2023-04-03T10:42:19.542Z,67814.94
2023-04-03T10:45:24.177Z,67761.13
2023-04-03T10:48:12.426Z,67630.84
2023-04-03T10:51:07.249Z,67635.88
2023-04-03T10:54:12.229Z,67680.41
2023-04-03T10:57:14.255Z,67822.88
2023-04-03T11:00:10.241Z,67840.00
2023-04-03T11:02:44.937Z,67769.78
2023-04-03T11:05:35.092Z,67674.06
2023-04-03T11:08:32.347Z,67626.13
2023-04-03T11:11:07.129Z,67651.09
2023-04-03T11:14:12.647Z,67795.75
2023-04-03T11:17:06.472Z,67878.22
2023-04-03T11:19:50.011Z,67823.41
2023-04-03T11:22:33.201Z,67795.19
2023-04-03T11:25:07.190Z,67770.34
2023-04-03T11:27:47.429Z,67715.59
2023-04-03T11:30:23.000Z,67700.75
2023-04-03T11:33:21.230Z,67711.66
2023-04-03T11:35:55.091Z,67707.91
2023-04-03T11:38:27.605Z,67757.38
2023-04-03T11:40:59.572Z,67782.03
2023-04-03T11:43:30.641Z,67723.50
2023-04-03T11:46:06.187Z,67729.72
2023-04-03T11:48:36.280Z,67743.06
2023-04-03T11:51:29.437Z,67760.56
2023-04-03T11:54:44.449Z,67741.75
2023-04-03T11:58:10.268Z,67768.47
2023-04-03T12:00:52.547Z,67744.19
2023-04-03T12:03:29.859Z,67752.69
2023-04-03T12:06:07.534Z,67840.38
2023-04-03T12:08:41.316Z,67847.38
2023-04-03T12:11:14.655Z,67757.00
2023-04-03T12:13:54.903Z,67681.19
2023-04-03T12:16:47.638Z,67667.66
2023-04-03T12:19:14.667Z,67622.53
2023-04-03T12:21:47.746Z,67645.81
2023-04-03T12:24:17.601Z,67648.69
2023-04-03T12:27:21.467Z,67643.19
2023-04-03T12:29:53.086Z,67670.28
2023-04-03T12:32:27.381Z,67698.13
2023-04-03T12:35:10.774Z,67736.28
2023-04-03T12:38:02.491Z,67738.38
2023-04-03T12:40:42.683Z,67680.06
2023-04-03T12:43:37.872Z,67629.31
2023-04-03T12:46:19.341Z,67617.25
2023-04-03T12:48:52.841Z,67577.47
2023-04-03T12:51:41.085Z,67619.16
2023-04-03T12:54:32.773Z,67636.63
2023-04-03T12:57:28.756Z,67643.59
2023-04-03T12:59:56.309Z,67653.94
2023-04-03T13:02:38.530Z,67722.72
2023-04-03T13:05:12.546Z,67744.94
2023-04-03T13:07:41.946Z,67747.78
2023-04-03T13:10:09.165Z,67712.03
2023-04-03T13:12:50.062Z,67656.19
2023-04-03T13:15:19.702Z,67622.53
2023-04-03T13:17:49.453Z,67602.38
2023-04-03T13:20:29.558Z,67591.88
2023-04-03T13:23:01.113Z,67586.25
2023-04-03T13:25:32.587Z,67594.91
2023-04-03T13:28:13.419Z,67610.69
2023-04-03T13:30:54.692Z,67619.94
2023-04-03T13:33:28.681Z,67616.91
2023-04-03T13:36:07.787Z,67610.34
2023-04-03T13:38:37.328Z,67615.00
2023-04-03T13:41:26.844Z,67598.66
2023-04-03T13:44:00.641Z,67586.25
2023-04-03T13:46:36.968Z,67571.59
2023-04-03T13:49:20.400Z,67565.97
2023-04-03T13:51:54.181Z,67592.09
2023-04-03T13:54:47.232Z,67609.22
2023-04-03T13:57:17.605Z,67594.72
2023-04-03T13:59:44.879Z,67593.78
2023-04-03T14:02:17.468Z,67595.06
2023-04-03T14:04:47.413Z,67607.09
2023-04-03T14:07:16.975Z,67607.66
2023-04-03T14:09:49.686Z,67596.41
2023-04-03T14:12:31.800Z,67585.53
2023-04-03T14:15:11.512Z,67595.28
2023-04-03T14:17:39.028Z,67577.78
2023-04-03T14:20:08.214Z,67571.03
2023-04-03T14:22:35.943Z,67568.78
2023-04-03T14:25:04.468Z,67509.31
2023-04-03T14:27:53.148Z,67566.88
2023-04-03T14:30:30.751Z,67561.09
2023-04-03T14:33:00.436Z,67542.31
2023-04-03T14:35:33.676Z,67516.56
2023-04-03T14:38:03.163Z,67516.94
2023-04-03T14:40:30.846Z,67520.88
2023-04-03T14:43:08.046Z,67530.25
2023-04-03T14:45:36.356Z,67519.19
2023-04-03T14:48:05.874Z,67528.19
2023-04-03T14:50:37.146Z,67504.19
2023-04-03T14:53:07.830Z,67518.63
2023-04-03T14:55:36.303Z,67538.91
2023-04-03T14:58:09.216Z,67525.94
2023-04-03T15:00:41.871Z,67546.44
2023-04-03T15:03:22.994Z,67553.97
2023-04-03T15:05:55.866Z,67572.16
2023-04-03T15:08:33.231Z,67572.94
2023-04-03T15:11:02.076Z,67570.47
2023-04-03T15:13:29.522Z,67553.00
2023-04-03T15:16:02.439Z,67551.31
2023-04-03T15:18:38.746Z,67531.22
2023-04-03T15:21:13.367Z,67517.28
2023-04-03T15:23:44.137Z,67500.97
2023-04-03T15:26:13.940Z,67487.44
2023-04-03T15:28:48.102Z,67482.22
2023-04-03T15:31:26.217Z,67483.13
2023-04-03T15:33:54.813Z,67477.16
2023-04-03T15:36:33.992Z,67469.81
2023-04-03T15:39:04.570Z,67459.31
2023-04-03T15:41:31.714Z,67456.84
2023-04-03T15:44:03.139Z,67452.38
2023-04-03T15:46:30.974Z,67454.59
2023-04-03T15:48:58.084Z,67456.31
2023-04-03T15:51:36.434Z,67453.28
2023-04-03T15:54:06.196Z,67450.66
2023-04-03T15:56:42.719Z,67443.94
2023-04-03T15:59:20.192Z,67439.41
2023-04-03T16:01:53.007Z,67434.72
2023-04-03T16:04:21.819Z,67429.84
2023-04-03T16:06:54.809Z,67428.16
2023-04-03T16:09:25.520Z,67429.09
2023-04-03T16:11:52.632Z,67432.44
2023-04-03T16:14:24.218Z,67428.34
2023-04-03T16:16:54.455Z,67429.63
2023-04-03T16:19:26.261Z,67424.56
2023-04-03T16:21:56.958Z,67412.59
2023-04-03T16:24:28.568Z,67427.38
2023-04-03T16:26:55.739Z,67421.75
2023-04-03T16:29:23.419Z,67415.00
2023-04-03T16:31:50.971Z,67406.56
2023-04-03T16:34:18.978Z,67405.28
2023-04-03T16:36:46.130Z,67420.06
2023-04-03T16:39:19.190Z,67393.25
2023-04-03T16:41:46.445Z,67391.16
2023-04-03T16:44:14.682Z,67386.88
2023-04-03T16:46:43.177Z,67379.53
2023-04-03T16:49:10.813Z,67372.78
2023-04-03T16:51:38.043Z,67335.97
2023-04-03T16:54:08.176Z,67375.44
2023-04-03T16:56:35.460Z,67381.22
2023-04-03T16:59:02.933Z,67369.06
2023-04-03T17:01:30.070Z,67366.03
2023-04-03T17:03:57.311Z,67352.19
2023-04-03T17:06:26.041Z,67361.19
2023-04-03T17:08:53.250Z,67349.50
2023-04-03T17:11:30.421Z,67323.84
2023-04-03T17:13:57.658Z,67319.75
2023-04-03T17:16:28.171Z,67269.06
2023-04-03T17:18:58.762Z,67299.09
2023-04-03T17:21:28.591Z,67292.91
2023-04-03T17:24:01.283Z,67283.91
2023-04-03T17:26:28.921Z,67270.41
2023-04-03T17:28:57.428Z,67261.19
2023-04-03T17:31:27.461Z,67258.59
2023-04-03T17:33:55.446Z,67204.44
2023-04-03T17:36:22.454Z,67192.09
2023-04-03T17:38:51.864Z,67186.81
2023-04-03T17:41:19.106Z,67217.00
2023-04-03T17:43:46.872Z,67207.25
2023-04-03T17:46:14.070Z,67187.41
2023-04-03T17:48:41.607Z,67138.16
2023-04-03T17:51:12.477Z,67131.78
2023-04-03T17:53:40.012Z,67169.22
2023-04-03T17:56:12.862Z,67169.44
2023-04-03T17:58:40.305Z,67166.97
2023-04-03T18:01:10.060Z,67158.56
2023-04-03T18:03:37.320Z,67150.69
2023-04-03T18:06:07.973Z,67146.53
2023-04-03T18:08:38.317Z,67135.31
2023-04-03T18:11:05.787Z,67078.66
2023-04-03T18:13:33.569Z,67137.22
2023-04-03T18:16:00.980Z,67093.81
2023-04-03T18:18:28.200Z,67089.31
2023-04-03T18:20:55.890Z,67082.56
2023-04-03T18:23:23.766Z,67120.56
2023-04-03T18:25:50.811Z,67135.31
2023-04-03T18:28:19.408Z,67137.78
2023-04-03T18:30:46.796Z,67143.41
2023-04-03T18:33:13.939Z,67146.41
2023-04-03T18:35:41.260Z,67160.81
2023-04-03T18:38:08.589Z,67110.09
2023-04-03T18:40:36.425Z,67157.22
2023-04-03T18:43:03.398Z,67154.63
2023-04-03T18:45:30.614Z,67102.22
2023-04-03T18:47:58.242Z,67144.84
2023-04-03T18:50:25.445Z,67134.63
2023-04-03T18:52:54.121Z,67091.56
2023-04-03T18:55:21.352Z,67152.94
2023-04-03T18:57:49.593Z,67107.84
2023-04-03T19:00:18.402Z,67105.38
2023-04-03T19:02:46.018Z,67150.13
2023-04-03T19:05:17.033Z,67146.41
2023-04-03T19:07:45.041Z,67138.75
2023-04-03T19:10:20.108Z,67139.47
2023-04-03T19:12:48.572Z,67140.56
2023-04-03T19:15:23.264Z,67141.91
2023-04-03T19:17:51.604Z,67145.09
2023-04-03T19:20:20.067Z,67141.72
2023-04-03T19:22:47.319Z,67144.16
2023-04-03T19:25:14.993Z,67147.31
2023-04-03T19:27:42.560Z,67145.09
2023-04-03T19:30:12.331Z,67093.44
2023-04-03T19:32:39.889Z,67147.31
2023-04-03T19:35:07.656Z,67105.59
2023-04-03T19:37:38.579Z,67108.97
2023-04-03T19:40:06.930Z,67155.06
2023-04-03T19:42:36.829Z,67152.94
2023-04-03T19:45:04.699Z,67146.78
2023-04-03T19:47:33.663Z,67140.78
2023-04-03T19:50:00.919Z,67141.72
2023-04-03T19:52:28.185Z,67143.41
2023-04-03T19:54:55.435Z,67142.81
2023-04-03T19:57:22.626Z,67142.81
2023-04-03T19:59:49.746Z,67139.09
2023-04-03T20:02:18.157Z,67140.94
2023-04-03T20:04:45.553Z,67143.41
2023-04-03T20:07:14.044Z,67102.94
2023-04-03T20:09:42.314Z,67143.41
2023-04-03T20:12:12.280Z,67144.50
2023-04-03T20:14:41.139Z,67141.47
2023-04-03T20:17:08.952Z,67143.41
2023-04-03T20:19:38.006Z,67145.28
2023-04-03T20:22:05.559Z,67155.75
2023-04-03T20:24:32.680Z,67157.78
2023-04-03T20:27:00.117Z,67160.25
2023-04-03T20:29:28.692Z,67120.75
2023-04-03T20:31:56.137Z,67163.59
2023-04-03T20:34:23.276Z,67170.19
2023-04-03T20:36:50.847Z,67192.84
2023-04-03T20:39:19.424Z,67190.25
2023-04-03T20:41:46.612Z,67179.56
2023-04-03T20:44:13.642Z,67172.59
2023-04-03T20:46:52.225Z,67181.59
2023-04-03T20:49:21.685Z,67202.25
2023-04-03T20:51:51.223Z,67171.31
2023-04-03T20:54:19.086Z,67209.00
2023-04-03T20:56:49.959Z,67166.78
2023-04-03T20:59:18.376Z,67217.00
2023-04-03T21:01:46.868Z,67219.81
2023-04-03T21:04:31.628Z,67216.09
2023-04-03T21:07:41.563Z,67221.50
2023-04-03T21:10:47.102Z,67203.72
2023-04-03T21:13:51.729Z,67210.25
2023-04-03T21:16:20.091Z,67207.31
2023-04-03T21:19:13.501Z,67221.69
2023-04-03T21:21:45.658Z,67175.78
2023-04-03T21:24:22.254Z,67214.94
2023-04-03T21:26:49.520Z,67222.25
2023-04-03T21:29:17.154Z,67220.94
2023-04-03T21:31:52.718Z,67222.06
2023-04-03T21:34:22.559Z,67223.16
2023-04-03T21:36:56.435Z,67176.91
2023-04-03T21:39:27.473Z,67217.22
2023-04-03T21:41:54.772Z,67224.50
2023-04-03T21:44:23.465Z,67229.94
2023-04-03T21:46:54.736Z,67227.31
2023-04-03T21:49:24.681Z,67228.25
2023-04-03T21:51:52.645Z,67227.88
2023-04-03T21:54:23.047Z,67227.69
2023-04-03T21:56:51.820Z,67221.50
2023-04-03T21:59:23.136Z,67225.09
2023-04-03T22:01:53.622Z,67179.72
2023-04-03T22:04:24.010Z,67225.22
2023-04-03T22:07:15.984Z,67221.28
2023-04-03T22:09:44.219Z,67219.25
2023-04-03T22:12:12.523Z,67219.47
2023-04-03T22:14:39.744Z,67219.25
2023-04-03T22:17:10.362Z,67222.06
2023-04-03T22:19:37.974Z,67221.50
2023-04-03T22:22:09.738Z,67214.38
2023-04-03T22:24:36.865Z,67213.63
2023-04-03T22:27:04.049Z,67221.50
2023-04-03T22:29:31.728Z,67217.56
2023-04-03T22:32:02.887Z,67214.19
2023-04-03T22:34:33.401Z,67212.16
2023-04-03T22:37:03.353Z,67195.50
2023-04-03T22:39:30.776Z,67158.38
2023-04-03T22:41:58.348Z,67210.47
2023-04-03T22:44:27.582Z,67210.47
2023-04-03T22:46:59.490Z,67164.56
2023-04-03T22:49:27.330Z,67208.00
2023-04-03T22:51:54.805Z,67208.78
2023-04-03T22:54:22.028Z,67206.16
2023-04-03T22:56:49.451Z,67199.44
2023-04-03T22:59:16.524Z,67200.34
2023-04-03T23:01:44.364Z,67203.50
2023-04-03T23:04:14.945Z,67205.75
2023-04-03T23:06:42.740Z,67200.00
2023-04-03T23:09:10.861Z,67194.94
2023-04-03T23:11:38.080Z,67199.22
2023-04-03T23:14:05.581Z,67195.09
2023-04-03T23:16:37.265Z,67198.09
2023-04-03T23:19:12.066Z,67198.09
2023-04-03T23:21:42.389Z,67195.09
2023-04-03T23:24:09.588Z,67187.41
2023-04-03T23:26:39.780Z,67194.50
2023-04-03T23:29:08.308Z,67192.47
2023-04-03T23:31:35.590Z,67186.88
2023-04-03T23:34:02.931Z,67177.72
2023-04-03T23:36:38.449Z,67191.72
2023-04-03T23:39:09.892Z,67187.78
2023-04-03T23:41:37.081Z,67201.63
2023-04-03T23:44:07.352Z,67191.72
2023-04-03T23:46:38.737Z,67199.78
2023-04-03T23:49:06.043Z,67191.91
2023-04-03T23:51:39.822Z,67187.63
2023-04-03T23:54:07.260Z,67191.56
2023-04-03T23:56:35.726Z,67195.88
2023-04-03T23:59:02.909Z,67191.72
